sensor_id;sensor_type;location;lat;lon;timestamp;pressure;altitude;pressure_sealevel;temperature;humidity
47706;BME280;33471;52.104;1.318;2023-03-23T00:01:50;99255.21;;;10.34;59.48
47706;BME280;33471;52.104;1.318;2023-03-23T00:04:17;99237.45;;;10.55;58.04
47706;BME280;33471;52.104;1.318;2023-03-23T00:06:44;99239.13;;;10.75;57.65
47706;BME280;33471;52.104;1.318;2023-03-23T00:09:12;99231.10;;;11.12;56.40
47706;BME280;33471;52.104;1.318;2023-03-23T00:11:40;99234.87;;;11.16;57.55
47706;BME280;33471;52.104;1.318;2023-03-23T00:14:09;99226.90;;;11.20;57.63
47706;BME280;33471;52.104;1.318;2023-03-23T00:16:36;99227.11;;;10.43;59.25
47706;BME280;33471;52.104;1.318;2023-03-23T00:19:05;99231.41;;;10.28;60.19
47706;BME280;33471;52.104;1.318;2023-03-23T00:21:35;99233.63;;;10.47;59.65
47706;BME280;33471;52.104;1.318;2023-03-23T00:24:05;99236.41;;;10.55;59.89
47706;BME280;33471;52.104;1.318;2023-03-23T00:26:34;99227.50;;;10.78;59.54
47706;BME280;33471;52.104;1.318;2023-03-23T00:29:03;99229.48;;;11.00;59.07
47706;BME280;33471;52.104;1.318;2023-03-23T00:31:31;99224.17;;;10.04;60.83
47706;BME280;33471;52.104;1.318;2023-03-23T00:33:59;99228.08;;;9.83;61.28
47706;BME280;33471;52.104;1.318;2023-03-23T00:36:27;99221.87;;;9.54;60.93
47706;BME280;33471;52.104;1.318;2023-03-23T00:38:55;99227.16;;;9.56;61.31
47706;BME280;33471;52.104;1.318;2023-03-23T00:41:22;99235.28;;;9.39;60.96
47706;BME280;33471;52.104;1.318;2023-03-23T00:43:50;99243.68;;;10.03;57.94
47706;BME280;33471;52.104;1.318;2023-03-23T00:46:17;99239.70;;;10.24;57.86
47706;BME280;33471;52.104;1.318;2023-03-23T00:48:44;99251.84;;;10.26;58.34
47706;BME280;33471;52.104;1.318;2023-03-23T00:51:12;99246.86;;;10.35;58.53
47706;BME280;33471;52.104;1.318;2023-03-23T00:53:40;99259.02;;;10.40;58.43
47706;BME280;33471;52.104;1.318;2023-03-23T00:56:08;99258.01;;;9.97;61.10
47706;BME280;33471;52.104;1.318;2023-03-23T00:58:35;99262.11;;;10.32;60.41
47706;BME280;33471;52.104;1.318;2023-03-23T01:01:03;99247.41;;;9.92;61.10
47706;BME280;33471;52.104;1.318;2023-03-23T01:03:35;99282.41;;;9.54;61.28
47706;BME280;33471;52.104;1.318;2023-03-23T01:06:06;99284.17;;;9.84;61.44
47706;BME280;33471;52.104;1.318;2023-03-23T01:08:33;99282.05;;;9.95;60.92
47706;BME280;33471;52.104;1.318;2023-03-23T01:11:04;99283.35;;;9.61;61.28
47706;BME280;33471;52.104;1.318;2023-03-23T01:13:32;99290.20;;;9.24;62.01
47706;BME280;33471;52.104;1.318;2023-03-23T01:15:59;99294.30;;;9.84;60.72
47706;BME280;33471;52.104;1.318;2023-03-23T01:18:26;99296.96;;;9.09;61.25
47706;BME280;33471;52.104;1.318;2023-03-23T01:20:54;99305.94;;;9.25;62.57
47706;BME280;33471;52.104;1.318;2023-03-23T01:23:21;99309.68;;;9.44;61.64
47706;BME280;33471;52.104;1.318;2023-03-23T01:25:48;99311.41;;;9.31;61.72
47706;BME280;33471;52.104;1.318;2023-03-23T01:28:16;99299.80;;;9.67;60.22
47706;BME280;33471;52.104;1.318;2023-03-23T01:30:43;99304.46;;;10.14;58.42
47706;BME280;33471;52.104;1.318;2023-03-23T01:33:10;99299.85;;;10.08;58.38
47706;BME280;33471;52.104;1.318;2023-03-23T01:35:38;99311.25;;;9.61;57.41
47706;BME280;33471;52.104;1.318;2023-03-23T01:38:05;99321.27;;;10.05;58.18
47706;BME280;33471;52.104;1.318;2023-03-23T01:40:32;99318.04;;;9.49;58.48
47706;BME280;33471;52.104;1.318;2023-03-23T01:42:59;99328.01;;;9.88;57.45
47706;BME280;33471;52.104;1.318;2023-03-23T01:45:30;99326.87;;;9.03;59.72
47706;BME280;33471;52.104;1.318;2023-03-23T01:48:03;99327.80;;;9.21;59.38
47706;BME280;33471;52.104;1.318;2023-03-23T01:50:36;99356.16;;;9.11;58.42
47706;BME280;33471;52.104;1.318;2023-03-23T01:53:07;99383.25;;;9.00;60.46
47706;BME280;33471;52.104;1.318;2023-03-23T01:55:36;99381.51;;;8.07;59.13
47706;BME280;33471;52.104;1.318;2023-03-23T01:58:05;99365.42;;;7.95;59.21
47706;BME280;33471;52.104;1.318;2023-03-23T02:00:34;99382.85;;;7.46;61.05
47706;BME280;33471;52.104;1.318;2023-03-23T02:03:02;99379.75;;;7.36;61.39
47706;BME280;33471;52.104;1.318;2023-03-23T02:05:31;99375.28;;;7.20;61.11
47706;BME280;33471;52.104;1.318;2023-03-23T02:08:01;99381.42;;;8.40;58.59
47706;BME280;33471;52.104;1.318;2023-03-23T02:10:30;99376.03;;;7.44;60.08
47706;BME280;33471;52.104;1.318;2023-03-23T02:12:58;99380.02;;;7.91;59.90
47706;BME280;33471;52.104;1.318;2023-03-23T02:15:29;99380.48;;;8.09;58.29
47706;BME280;33471;52.104;1.318;2023-03-23T02:18:06;99386.67;;;7.71;60.38
47706;BME280;33471;52.104;1.318;2023-03-23T02:20:52;99382.36;;;7.58;60.67
47706;BME280;33471;52.104;1.318;2023-03-23T02:23:39;99384.72;;;7.19;60.78
47706;BME280;33471;52.104;1.318;2023-03-23T02:26:24;99378.63;;;7.91;60.79
47706;BME280;33471;52.104;1.318;2023-03-23T02:29:18;99376.82;;;7.91;60.07
47706;BME280;33471;52.104;1.318;2023-03-23T02:32:04;99377.82;;;8.11;60.57
47706;BME280;33471;52.104;1.318;2023-03-23T02:34:38;99375.78;;;8.03;59.80
47706;BME280;33471;52.104;1.318;2023-03-23T02:37:11;99374.38;;;8.07;59.80
47706;BME280;33471;52.104;1.318;2023-03-23T02:39:44;99373.75;;;7.56;60.69
47706;BME280;33471;52.104;1.318;2023-03-23T02:42:18;99378.02;;;8.37;58.93
47706;BME280;33471;52.104;1.318;2023-03-23T02:44:47;99371.02;;;7.93;60.51
47706;BME280;33471;52.104;1.318;2023-03-23T02:47:20;99368.85;;;9.32;57.48
47706;BME280;33471;52.104;1.318;2023-03-23T02:49:52;99378.16;;;8.35;58.80
47706;BME280;33471;52.104;1.318;2023-03-23T02:52:24;99375.44;;;8.90;58.53
47706;BME280;33471;52.104;1.318;2023-03-23T02:54:55;99371.78;;;8.98;57.76
47706;BME280;33471;52.104;1.318;2023-03-23T02:57:24;99371.28;;;8.79;59.25
47706;BME280;33471;52.104;1.318;2023-03-23T02:59:52;99372.10;;;8.90;58.35
47706;BME280;33471;52.104;1.318;2023-03-23T03:02:22;99374.83;;;9.32;57.05
47706;BME280;33471;52.104;1.318;2023-03-23T03:04:56;99370.00;;;9.04;58.52
47706;BME280;33471;52.104;1.318;2023-03-23T03:07:35;99367.04;;;9.69;56.36
47706;BME280;33471;52.104;1.318;2023-03-23T03:10:08;99382.44;;;10.33;54.50
47706;BME280;33471;52.104;1.318;2023-03-23T03:12:45;99377.53;;;9.67;55.80
47706;BME280;33471;52.104;1.318;2023-03-23T03:15:23;99381.89;;;11.00;52.85
47706;BME280;33471;52.104;1.318;2023-03-23T03:17:58;99380.30;;;10.72;52.26
47706;BME280;33471;52.104;1.318;2023-03-23T03:20:27;99381.89;;;10.51;52.45
47706;BME280;33471;52.104;1.318;2023-03-23T03:22:55;99375.35;;;12.16;50.49
47706;BME280;33471;52.104;1.318;2023-03-23T03:25:23;99383.58;;;9.95;54.04
47706;BME280;33471;52.104;1.318;2023-03-23T03:27:52;99393.50;;;10.80;52.44
47706;BME280;33471;52.104;1.318;2023-03-23T03:30:24;99396.24;;;10.68;51.92
47706;BME280;33471;52.104;1.318;2023-03-23T03:32:54;99397.21;;;11.21;51.45
47706;BME280;33471;52.104;1.318;2023-03-23T03:35:22;99399.04;;;11.34;50.67
47706;BME280;33471;52.104;1.318;2023-03-23T03:37:50;99398.41;;;11.73;50.16
47706;BME280;33471;52.104;1.318;2023-03-23T03:40:19;99400.26;;;10.87;51.25
47706;BME280;33471;52.104;1.318;2023-03-23T03:42:47;99399.22;;;11.45;49.24
47706;BME280;33471;52.104;1.318;2023-03-23T03:45:16;99403.32;;;10.70;51.44
47706;BME280;33471;52.104;1.318;2023-03-23T03:47:43;99406.15;;;9.78;53.20
47706;BME280;33471;52.104;1.318;2023-03-23T03:50:11;99409.08;;;10.90;50.68
47706;BME280;33471;52.104;1.318;2023-03-23T03:52:39;99413.72;;;11.18;50.21
47706;BME280;33471;52.104;1.318;2023-03-23T03:55:08;99414.97;;;10.60;51.03
47706;BME280;33471;52.104;1.318;2023-03-23T03:57:37;99421.56;;;11.41;48.87
47706;BME280;33471;52.104;1.318;2023-03-23T04:00:06;99425.14;;;11.30;49.89
47706;BME280;33471;52.104;1.318;2023-03-23T04:02:34;99431.57;;;10.98;50.19
47706;BME280;33471;52.104;1.318;2023-03-23T04:05:01;99438.30;;;10.82;50.25
47706;BME280;33471;52.104;1.318;2023-03-23T04:07:28;99442.61;;;11.19;49.25
47706;BME280;33471;52.104;1.318;2023-03-23T04:09:55;99441.28;;;11.07;49.72
47706;BME280;33471;52.104;1.318;2023-03-23T04:12:23;99444.00;;;11.00;49.58
47706;BME280;33471;52.104;1.318;2023-03-23T04:14:50;99444.19;;;10.45;50.13
47706;BME280;33471;52.104;1.318;2023-03-23T04:17:17;99445.79;;;10.76;50.26
47706;BME280;33471;52.104;1.318;2023-03-23T04:19:44;99446.55;;;10.17;51.10
47706;BME280;33471;52.104;1.318;2023-03-23T04:22:11;99444.61;;;9.83;51.51
47706;BME280;33471;52.104;1.318;2023-03-23T04:24:38;99448.09;;;9.86;51.25
47706;BME280;33471;52.104;1.318;2023-03-23T04:27:05;99448.10;;;10.21;51.63
47706;BME280;33471;52.104;1.318;2023-03-23T04:29:32;99450.79;;;10.24;50.14
47706;BME280;33471;52.104;1.318;2023-03-23T04:32:00;99454.56;;;11.04;48.85
47706;BME280;33471;52.104;1.318;2023-03-23T04:34:27;99452.29;;;9.59;50.79
47706;BME280;33471;52.104;1.318;2023-03-23T04:36:54;99457.41;;;9.88;51.32
47706;BME280;33471;52.104;1.318;2023-03-23T04:39:22;99456.42;;;10.48;50.51
47706;BME280;33471;52.104;1.318;2023-03-23T04:41:49;99461.31;;;10.31;49.36
47706;BME280;33471;52.104;1.318;2023-03-23T04:44:17;99460.08;;;10.11;49.41
47706;BME280;33471;52.104;1.318;2023-03-23T04:46:45;99465.19;;;10.43;49.53
47706;BME280;33471;52.104;1.318;2023-03-23T04:49:13;99469.45;;;10.25;49.65
47706;BME280;33471;52.104;1.318;2023-03-23T04:51:41;99474.78;;;10.08;50.05
47706;BME280;33471;52.104;1.318;2023-03-23T04:54:08;99480.34;;;9.52;51.93
47706;BME280;33471;52.104;1.318;2023-03-23T04:56:35;99478.41;;;9.90;49.92
47706;BME280;33471;52.104;1.318;2023-03-23T04:59:03;99485.29;;;10.12;49.58
47706;BME280;33471;52.104;1.318;2023-03-23T05:01:29;99483.25;;;10.67;49.40
47706;BME280;33471;52.104;1.318;2023-03-23T05:03:56;99491.68;;;8.99;52.37
47706;BME280;33471;52.104;1.318;2023-03-23T05:06:23;99490.59;;;9.46;50.79
47706;BME280;33471;52.104;1.318;2023-03-23T05:08:51;99493.42;;;9.68;50.71
47706;BME280;33471;52.104;1.318;2023-03-23T05:11:18;99495.40;;;9.78;50.18
47706;BME280;33471;52.104;1.318;2023-03-23T05:13:45;99495.82;;;10.24;49.17
47706;BME280;33471;52.104;1.318;2023-03-23T05:16:11;99501.12;;;10.18;49.99
47706;BME280;33471;52.104;1.318;2023-03-23T05:18:39;99504.71;;;9.74;49.46
47706;BME280;33471;52.104;1.318;2023-03-23T05:21:07;99505.45;;;10.30;49.07
47706;BME280;33471;52.104;1.318;2023-03-23T05:23:34;99505.92;;;9.83;49.15
47706;BME280;33471;52.104;1.318;2023-03-23T05:26:02;99504.73;;;10.81;48.22
47706;BME280;33471;52.104;1.318;2023-03-23T05:28:29;99507.97;;;9.95;49.48
47706;BME280;33471;52.104;1.318;2023-03-23T05:30:55;99506.07;;;10.55;48.32
47706;BME280;33471;52.104;1.318;2023-03-23T05:33:23;99507.42;;;11.18;47.19
47706;BME280;33471;52.104;1.318;2023-03-23T05:35:50;99512.41;;;10.02;49.09
47706;BME280;33471;52.104;1.318;2023-03-23T05:38:17;99512.11;;;10.06;49.00
47706;BME280;33471;52.104;1.318;2023-03-23T05:40:44;99510.58;;;10.43;47.73
47706;BME280;33471;52.104;1.318;2023-03-23T05:43:12;99512.25;;;11.06;47.10
47706;BME280;33471;52.104;1.318;2023-03-23T05:45:39;99517.30;;;10.29;48.89
47706;BME280;33471;52.104;1.318;2023-03-23T05:48:06;99518.46;;;10.04;48.54
47706;BME280;33471;52.104;1.318;2023-03-23T05:50:33;99518.97;;;10.74;47.47
47706;BME280;33471;52.104;1.318;2023-03-23T05:53:00;99520.43;;;10.96;47.68
47706;BME280;33471;52.104;1.318;2023-03-23T05:55:27;99517.26;;;10.62;47.53
47706;BME280;33471;52.104;1.318;2023-03-23T05:57:55;99519.92;;;10.96;47.70
47706;BME280;33471;52.104;1.318;2023-03-23T06:00:23;99518.62;;;11.11;47.63
47706;BME280;33471;52.104;1.318;2023-03-23T06:02:54;99517.12;;;10.57;47.79
47706;BME280;33471;52.104;1.318;2023-03-23T06:05:23;99519.02;;;10.35;49.02
47706;BME280;33471;52.104;1.318;2023-03-23T06:07:50;99518.30;;;10.43;47.80
47706;BME280;33471;52.104;1.318;2023-03-23T06:10:17;99518.65;;;11.05;47.65
47706;BME280;33471;52.104;1.318;2023-03-23T06:12:44;99518.11;;;11.23;47.13
47706;BME280;33471;52.104;1.318;2023-03-23T06:15:12;99519.65;;;10.99;47.61
47706;BME280;33471;52.104;1.318;2023-03-23T06:17:40;99522.06;;;10.81;47.31
47706;BME280;33471;52.104;1.318;2023-03-23T06:20:08;99524.25;;;11.27;47.33
47706;BME280;33471;52.104;1.318;2023-03-23T06:22:35;99526.56;;;10.67;47.39
47706;BME280;33471;52.104;1.318;2023-03-23T06:25:04;99530.02;;;10.65;48.72
47706;BME280;33471;52.104;1.318;2023-03-23T06:27:31;99527.38;;;11.03;48.45
47706;BME280;33471;52.104;1.318;2023-03-23T06:29:58;99526.39;;;10.92;48.48
47706;BME280;33471;52.104;1.318;2023-03-23T06:32:28;99533.46;;;10.19;49.00
47706;BME280;33471;52.104;1.318;2023-03-23T06:34:56;99538.35;;;10.27;49.72
47706;BME280;33471;52.104;1.318;2023-03-23T06:37:24;99535.12;;;10.50;49.25
47706;BME280;33471;52.104;1.318;2023-03-23T06:39:50;99537.28;;;10.85;49.21
47706;BME280;33471;52.104;1.318;2023-03-23T06:42:18;99538.43;;;10.88;48.46
47706;BME280;33471;52.104;1.318;2023-03-23T06:44:45;99534.95;;;9.79;51.61
47706;BME280;33471;52.104;1.318;2023-03-23T06:47:12;99541.60;;;10.28;50.50
47706;BME280;33471;52.104;1.318;2023-03-23T06:49:39;99536.02;;;10.09;51.51
47706;BME280;33471;52.104;1.318;2023-03-23T06:52:06;99539.03;;;10.30;51.74
47706;BME280;33471;52.104;1.318;2023-03-23T06:54:33;99544.20;;;9.78;53.00
47706;BME280;33471;52.104;1.318;2023-03-23T06:57:01;99543.77;;;10.05;52.47
47706;BME280;33471;52.104;1.318;2023-03-23T06:59:28;99540.59;;;10.17;52.82
47706;BME280;33471;52.104;1.318;2023-03-23T07:01:55;99540.51;;;9.78;54.26
47706;BME280;33471;52.104;1.318;2023-03-23T07:04:24;99541.31;;;9.32;54.67
47706;BME280;33471;52.104;1.318;2023-03-23T07:06:51;99538.62;;;9.68;54.53
47706;BME280;33471;52.104;1.318;2023-03-23T07:09:18;99539.32;;;9.58;54.73
47706;BME280;33471;52.104;1.318;2023-03-23T07:11:46;99540.90;;;9.88;53.90
47706;BME280;33471;52.104;1.318;2023-03-23T07:14:13;99538.13;;;10.45;52.24
47706;BME280;33471;52.104;1.318;2023-03-23T07:16:41;99543.46;;;10.03;53.20
47706;BME280;33471;52.104;1.318;2023-03-23T07:19:08;99541.00;;;9.72;55.30
47706;BME280;33471;52.104;1.318;2023-03-23T07:21:35;99541.46;;;9.86;55.03
47706;BME280;33471;52.104;1.318;2023-03-23T07:24:02;99543.55;;;9.04;56.82
47706;BME280;33471;52.104;1.318;2023-03-23T07:26:29;99539.20;;;9.59;56.42
47706;BME280;33471;52.104;1.318;2023-03-23T07:28:57;99529.64;;;9.32;56.81
47706;BME280;33471;52.104;1.318;2023-03-23T07:31:24;99536.04;;;9.61;56.07
47706;BME280;33471;52.104;1.318;2023-03-23T07:33:50;99534.15;;;9.59;56.39
47706;BME280;33471;52.104;1.318;2023-03-23T07:36:18;99533.13;;;9.98;56.28
47706;BME280;33471;52.104;1.318;2023-03-23T07:38:45;99537.29;;;10.12;55.53
47706;BME280;33471;52.104;1.318;2023-03-23T07:41:12;99546.01;;;10.33;55.54
47706;BME280;33471;52.104;1.318;2023-03-23T07:43:40;99541.01;;;9.72;56.42
47706;BME280;33471;52.104;1.318;2023-03-23T07:46:07;99536.63;;;9.95;56.22
47706;BME280;33471;52.104;1.318;2023-03-23T07:48:34;99541.45;;;9.81;57.11
47706;BME280;33471;52.104;1.318;2023-03-23T07:51:07;99539.37;;;10.25;56.59
47706;BME280;33471;52.104;1.318;2023-03-23T07:53:34;99538.32;;;10.11;56.32
47706;BME280;33471;52.104;1.318;2023-03-23T07:56:02;99541.22;;;10.26;56.38
47706;BME280;33471;52.104;1.318;2023-03-23T07:58:29;99540.36;;;9.85;55.48
47706;BME280;33471;52.104;1.318;2023-03-23T08:00:56;99544.84;;;10.01;57.21
47706;BME280;33471;52.104;1.318;2023-03-23T08:03:24;99540.14;;;9.82;56.11
47706;BME280;33471;52.104;1.318;2023-03-23T08:05:51;99540.77;;;10.24;56.79
47706;BME280;33471;52.104;1.318;2023-03-23T08:08:18;99540.01;;;10.02;57.14
47706;BME280;33471;52.104;1.318;2023-03-23T08:10:45;99540.71;;;9.68;57.28
47706;BME280;33471;52.104;1.318;2023-03-23T08:13:12;99543.69;;;9.91;56.97
47706;BME280;33471;52.104;1.318;2023-03-23T08:15:40;99544.59;;;9.90;56.40
47706;BME280;33471;52.104;1.318;2023-03-23T08:18:07;99544.62;;;10.09;55.86
47706;BME280;33471;52.104;1.318;2023-03-23T08:20:34;99547.12;;;10.43;55.55
47706;BME280;33471;52.104;1.318;2023-03-23T08:23:02;99551.08;;;10.02;56.16
47706;BME280;33471;52.104;1.318;2023-03-23T08:25:30;99549.02;;;10.10;56.17
47706;BME280;33471;52.104;1.318;2023-03-23T08:27:58;99548.57;;;10.13;56.97
47706;BME280;33471;52.104;1.318;2023-03-23T08:30:25;99551.56;;;9.72;57.01
47706;BME280;33471;52.104;1.318;2023-03-23T08:32:52;99554.18;;;10.08;57.64
47706;BME280;33471;52.104;1.318;2023-03-23T08:35:19;99554.19;;;10.24;56.08
47706;BME280;33471;52.104;1.318;2023-03-23T08:37:47;99549.90;;;10.28;56.79
47706;BME280;33471;52.104;1.318;2023-03-23T08:40:14;99551.85;;;10.94;55.43
47706;BME280;33471;52.104;1.318;2023-03-23T08:42:43;99550.46;;;10.70;55.61
47706;BME280;33471;52.104;1.318;2023-03-23T08:45:15;99544.04;;;10.36;55.65
47706;BME280;33471;52.104;1.318;2023-03-23T08:47:43;99537.65;;;11.12;54.34
47706;BME280;33471;52.104;1.318;2023-03-23T08:50:13;99542.58;;;10.52;55.32
47706;BME280;33471;52.104;1.318;2023-03-23T08:52:41;99547.39;;;10.67;56.01
47706;BME280;33471;52.104;1.318;2023-03-23T08:55:09;99547.26;;;10.50;56.51
47706;BME280;33471;52.104;1.318;2023-03-23T08:57:37;99548.30;;;10.77;56.44
47706;BME280;33471;52.104;1.318;2023-03-23T09:00:06;99544.99;;;11.00;55.09
47706;BME280;33471;52.104;1.318;2023-03-23T09:02:33;99554.07;;;11.46;54.47
47706;BME280;33471;52.104;1.318;2023-03-23T09:05:01;99543.14;;;10.67;55.72
47706;BME280;33471;52.104;1.318;2023-03-23T09:07:28;99553.08;;;9.93;57.81
47706;BME280;33471;52.104;1.318;2023-03-23T09:09:55;99557.67;;;10.72;56.76
47706;BME280;33471;52.104;1.318;2023-03-23T09:12:23;99562.80;;;10.83;57.05
47706;BME280;33471;52.104;1.318;2023-03-23T09:14:50;99548.15;;;10.57;56.58
47706;BME280;33471;52.104;1.318;2023-03-23T09:17:18;99550.66;;;11.13;54.42
47706;BME280;33471;52.104;1.318;2023-03-23T09:19:45;99543.39;;;11.25;54.78
47706;BME280;33471;52.104;1.318;2023-03-23T09:22:12;99546.62;;;10.73;55.23
47706;BME280;33471;52.104;1.318;2023-03-23T09:24:39;99552.90;;;11.75;53.71
47706;BME280;33471;52.104;1.318;2023-03-23T09:27:07;99542.58;;;11.56;53.39
47706;BME280;33471;52.104;1.318;2023-03-23T09:29:34;99549.88;;;11.72;53.62
47706;BME280;33471;52.104;1.318;2023-03-23T09:32:01;99553.61;;;12.37;53.99
47706;BME280;33471;52.104;1.318;2023-03-23T09:34:28;99553.83;;;12.39;51.97
47706;BME280;33471;52.104;1.318;2023-03-23T09:36:55;99552.03;;;13.51;50.58
47706;BME280;33471;52.104;1.318;2023-03-23T09:39:23;99558.37;;;12.33;51.68
47706;BME280;33471;52.104;1.318;2023-03-23T09:42:01;99550.41;;;12.35;51.66
47706;BME280;33471;52.104;1.318;2023-03-23T09:44:37;99555.17;;;12.43;52.02
47706;BME280;33471;52.104;1.318;2023-03-23T09:47:14;99552.00;;;12.64;51.28
47706;BME280;33471;52.104;1.318;2023-03-23T09:49:50;99566.69;;;12.03;53.10
47706;BME280;33471;52.104;1.318;2023-03-23T09:52:20;99569.61;;;12.98;50.87
47706;BME280;33471;52.104;1.318;2023-03-23T09:54:49;99557.84;;;12.46;51.54
47706;BME280;33471;52.104;1.318;2023-03-23T09:57:24;99553.56;;;12.45;51.18
47706;BME280;33471;52.104;1.318;2023-03-23T09:59:57;99555.55;;;12.80;50.22
47706;BME280;33471;52.104;1.318;2023-03-23T10:02:30;99568.00;;;12.10;50.08
47706;BME280;33471;52.104;1.318;2023-03-23T10:05:07;99566.82;;;12.20;49.77
47706;BME280;33471;52.104;1.318;2023-03-23T10:07:40;99565.00;;;12.08;50.10
47706;BME280;33471;52.104;1.318;2023-03-23T10:10:12;99564.17;;;12.00;51.18
47706;BME280;33471;52.104;1.318;2023-03-23T10:12:45;99557.41;;;11.68;50.76
47706;BME280;33471;52.104;1.318;2023-03-23T10:15:17;99561.08;;;12.29;48.81
47706;BME280;33471;52.104;1.318;2023-03-23T10:17:52;99564.51;;;12.31;51.32
47706;BME280;33471;52.104;1.318;2023-03-23T10:20:31;99561.79;;;11.80;51.05
47706;BME280;33471;52.104;1.318;2023-03-23T10:23:10;99555.85;;;12.14;50.12
47706;BME280;33471;52.104;1.318;2023-03-23T10:25:42;99537.84;;;13.22;48.39
47706;BME280;33471;52.104;1.318;2023-03-23T10:28:12;99539.47;;;13.77;47.68
47706;BME280;33471;52.104;1.318;2023-03-23T10:30:41;99554.91;;;14.29;44.67
47706;BME280;33471;52.104;1.318;2023-03-23T10:33:16;99534.12;;;13.50;45.10
47706;BME280;33471;52.104;1.318;2023-03-23T10:35:50;99539.43;;;13.13;45.44
47706;BME280;33471;52.104;1.318;2023-03-23T10:38:22;99550.23;;;12.60;47.31
47706;BME280;33471;52.104;1.318;2023-03-23T10:40:54;99548.92;;;11.99;47.90
47706;BME280;33471;52.104;1.318;2023-03-23T10:43:24;99538.71;;;13.45;45.39
47706;BME280;33471;52.104;1.318;2023-03-23T10:45:56;99531.49;;;13.03;45.20
47706;BME280;33471;52.104;1.318;2023-03-23T10:48:29;99538.45;;;13.42;44.61
47706;BME280;33471;52.104;1.318;2023-03-23T10:51:00;99532.35;;;13.38;44.09
47706;BME280;33471;52.104;1.318;2023-03-23T10:53:38;99535.56;;;13.22;44.90
47706;BME280;33471;52.104;1.318;2023-03-23T10:56:21;99538.14;;;13.65;44.14
47706;BME280;33471;52.104;1.318;2023-03-23T10:58:48;99540.86;;;13.95;44.76
47706;BME280;33471;52.104;1.318;2023-03-23T11:01:19;99538.13;;;13.86;44.52
47706;BME280;33471;52.104;1.318;2023-03-23T11:03:48;99539.94;;;13.66;46.29
47706;BME280;33471;52.104;1.318;2023-03-23T11:06:20;99537.49;;;13.70;46.23
47706;BME280;33471;52.104;1.318;2023-03-23T11:08:52;99543.28;;;13.48;46.41
47706;BME280;33471;52.104;1.318;2023-03-23T11:11:26;99539.72;;;13.28;45.58
47706;BME280;33471;52.104;1.318;2023-03-23T11:13:58;99541.87;;;13.10;46.51
47706;BME280;33471;52.104;1.318;2023-03-23T11:16:28;99545.78;;;12.97;46.01
47706;BME280;33471;52.104;1.318;2023-03-23T11:18:56;99546.80;;;13.71;45.35
47706;BME280;33471;52.104;1.318;2023-03-23T11:21:25;99549.79;;;13.15;45.07
47706;BME280;33471;52.104;1.318;2023-03-23T11:23:55;99547.21;;;13.46;45.91
47706;BME280;33471;52.104;1.318;2023-03-23T11:26:26;99528.40;;;13.04;45.87
47706;BME280;33471;52.104;1.318;2023-03-23T11:28:56;99534.59;;;14.09;44.59
47706;BME280;33471;52.104;1.318;2023-03-23T11:31:28;99537.09;;;13.28;45.70
47706;BME280;33471;52.104;1.318;2023-03-23T11:33:59;99527.39;;;14.07;44.20
47706;BME280;33471;52.104;1.318;2023-03-23T11:36:31;99529.09;;;13.25;45.30
47706;BME280;33471;52.104;1.318;2023-03-23T11:39:00;99529.02;;;13.83;45.85
47706;BME280;33471;52.104;1.318;2023-03-23T11:41:33;99519.09;;;14.57;44.84
47706;BME280;33471;52.104;1.318;2023-03-23T11:44:09;99520.82;;;14.70;43.97
47706;BME280;33471;52.104;1.318;2023-03-23T11:46:43;99531.88;;;12.80;46.80
47706;BME280;33471;52.104;1.318;2023-03-23T11:49:20;99522.27;;;13.58;45.63
47706;BME280;33471;52.104;1.318;2023-03-23T11:51:55;99520.54;;;14.02;44.55
47706;BME280;33471;52.104;1.318;2023-03-23T11:54:30;99518.44;;;14.16;45.08
47706;BME280;33471;52.104;1.318;2023-03-23T11:56:58;99516.70;;;13.52;47.40
47706;BME280;33471;52.104;1.318;2023-03-23T11:59:28;99515.26;;;13.13;46.73
47706;BME280;33471;52.104;1.318;2023-03-23T12:02:01;99525.33;;;13.28;44.94
47706;BME280;33471;52.104;1.318;2023-03-23T12:04:39;99537.08;;;12.31;46.69
47706;BME280;33471;52.104;1.318;2023-03-23T12:07:19;99540.57;;;12.68;46.94
47706;BME280;33471;52.104;1.318;2023-03-23T12:09:55;99538.08;;;12.77;47.41
47706;BME280;33471;52.104;1.318;2023-03-23T12:12:32;99534.23;;;12.44;49.19
47706;BME280;33471;52.104;1.318;2023-03-23T12:15:17;99530.80;;;12.76;48.63
47706;BME280;33471;52.104;1.318;2023-03-23T12:17:54;99545.14;;;12.62;49.02
47706;BME280;33471;52.104;1.318;2023-03-23T12:20:32;99534.78;;;12.67;48.09
47706;BME280;33471;52.104;1.318;2023-03-23T12:23:14;99527.93;;;13.44;47.40
47706;BME280;33471;52.104;1.318;2023-03-23T12:25:58;99541.84;;;13.82;47.87
47706;BME280;33471;52.104;1.318;2023-03-23T12:28:39;99547.83;;;12.86;47.96
47706;BME280;33471;52.104;1.318;2023-03-23T12:31:18;99538.40;;;13.20;48.09
47706;BME280;33471;52.104;1.318;2023-03-23T12:33:55;99534.69;;;14.04;47.51
47706;BME280;33471;52.104;1.318;2023-03-23T12:36:39;99534.77;;;14.15;45.35
47706;BME280;33471;52.104;1.318;2023-03-23T12:39:37;99533.92;;;13.40;47.88
47706;BME280;33471;52.104;1.318;2023-03-23T12:42:11;99539.14;;;13.91;48.32
47706;BME280;33471;52.104;1.318;2023-03-23T12:44:45;99526.65;;;14.28;47.03
47706;BME280;33471;52.104;1.318;2023-03-23T12:47:23;99524.42;;;14.15;47.17
47706;BME280;33471;52.104;1.318;2023-03-23T12:49:58;99527.34;;;13.65;48.88
47706;BME280;33471;52.104;1.318;2023-03-23T12:52:32;99522.40;;;13.28;47.81
47706;BME280;33471;52.104;1.318;2023-03-23T12:55:04;99519.36;;;14.72;46.07
47706;BME280;33471;52.104;1.318;2023-03-23T12:57:36;99522.59;;;14.40;44.67
47706;BME280;33471;52.104;1.318;2023-03-23T13:00:13;99516.64;;;14.80;44.35
47706;BME280;33471;52.104;1.318;2023-03-23T13:02:44;99514.85;;;14.98;45.73
47706;BME280;33471;52.104;1.318;2023-03-23T13:05:29;99515.34;;;14.20;46.75
47706;BME280;33471;52.104;1.318;2023-03-23T13:08:04;99502.52;;;13.66;48.59
47706;BME280;33471;52.104;1.318;2023-03-23T13:10:35;99510.09;;;13.54;46.99
47706;BME280;33471;52.104;1.318;2023-03-23T13:13:06;99516.14;;;13.58;47.14
47706;BME280;33471;52.104;1.318;2023-03-23T13:15:48;99520.68;;;13.78;47.16
47706;BME280;33471;52.104;1.318;2023-03-23T13:18:27;99499.76;;;14.11;46.97